ADDS METAR Data INFO
IDs: Format: Raw Decoded Include TAF

Data at: 0931 UTC 25 Jun 2018

KEMP 250853Z AUTO 03007KT 5SM TSRA BR SCT046 BKN070 OVC110 21/19 A2991 RMK AO2 LTG DSNT ALQDS RAB0754 TSE0756B01E16B24 PRESFR SLP118 P0032 60032 T02060194 50008
KEMP 250847Z AUTO 02004KT 3SM TSRA BR SCT046 BKN055 OVC080 21/19 A2994 RMK AO2 LTG DSNT ALQDS RAB0754 TSE0756B01E16B24 P0030
KEMP 250841Z AUTO 27004KT 1 3/4SM +TSRA BR SCT043 BKN055 OVC080 21/19 A2995 RMK AO2 LTG DSNT ALQDS RAB0754 TSE0756B01E16B24 P0028 T02060194
KEMP 250828Z AUTO 28005KT 2 1/2SM TSRA BR FEW019 SCT055 OVC080 21/19 A2995 RMK AO2 VIS 1 1/2V5 LTG DSNT ALQDS RAB0754 TSE0756B01E16B24 PRESRR P0011 T02060194
KEMP 250822Z AUTO 31005KT 4SM VCTS -RA BR FEW014 FEW035 OVC080 21/19 A2994 RMK AO2 LTG DSNT ALQDS RAB0754 TSE0756B01E16 PRESRR P0006 T02110194
KEMP 250811Z AUTO 33006KT 10SM -TSRA FEW009 SCT014 OVC080 21/19 A2992 RMK AO2 LTG DSNT ALQDS RAB0754 TSE0756B01 P0002 T02060194
KEMP 250753Z AUTO 33008KT 10SM TS SCT008 BKN014 OVC080 21/19 A2992 RMK AO2 LTG DSNT SW-N RAB17E31 TSB21E36B41 SLP122 P0000 T02110194
KEMP 250739Z AUTO 35005KT 10SM VCTS FEW008 OVC080 21/19 A2991 RMK AO2 LTG DSNT ALQDS RAB17E31 TSB21E36 P0000 T02110194
KEMP 250727Z AUTO 04008KT 10SM -TSRA OVC080 21/19 A2989 RMK AO2 LTG DSNT SW-N RAB17 TSB21 P0000 T02110194
KEMP 250653Z AUTO 09006KT 10SM VCTS OVC095 21/19 A2990 RMK AO2 LTG DSNT SW AND W SLP114 T02110194
KEMP 250553Z AUTO 11005KT 10SM FEW011 SCT110 20/19 A2988 RMK AO2 SLP110 T02000189 10250 20189 402720189 58006
KEMP 250453Z AUTO 06006KT 10SM CLR 20/18 A2987 RMK AO2 SLP107 T02000183
KEMP 250353Z AUTO 07003KT 10SM BKN110 21/18 A2992 RMK AO2 SLP122 T02060183
KEMP 250253Z AUTO 09004KT 10SM CLR 21/18 A2990 RMK AO2 SLP117 T02060178 53016
KEMP 250153Z AUTO 12005KT 10SM CLR 22/17 A2987 RMK AO2 SLP107 T02220172
KEMP 250053Z AUTO 16007KT 10SM CLR 24/18 A2987 RMK AO2 SLP106 T02390183
KEMP 242353Z AUTO 16008KT 10SM CLR 25/19 A2985 RMK AO2 SLP100 T02500194 10272 20250 56003
KEMP 242253Z AUTO 12009KT 10SM CLR 26/19 A2986 RMK AO2 SLP101 T02610189
KEMP 242153Z AUTO 12008KT 10SM CLR 27/18 A2986 RMK AO2 SLP101 T02720178
KEMP 242053Z AUTO 13005KT 10SM CLR 27/18 A2986 RMK AO2 SLP103 T02670183 53002
KEMP 241953Z AUTO 13007KT 10SM CLR 27/18 A2986 RMK AO2 SLP103 T02670183
KEMP 241853Z AUTO 09004G16KT 10SM CLR 26/18 A2985 RMK AO2 PRESRR SLP098 T02610183
KEMP 241753Z AUTO 14011KT 10SM CLR 26/18 A2986 RMK AO2 SLP101 T02560178 10256 20217 58001
KEMP 241653Z AUTO 23006KT 10SM FEW110 25/18 A2990 RMK AO2 SLP117 T02500178
KEMP 241553Z AUTO 25006KT 10SM SCT110 25/18 A2991 RMK AO2 SLP118 T02500183
KEMP 241453Z AUTO 00000KT 10SM CLR 25/18 A2986 RMK AO2 SLP101 T02500183 53021
KEMP 241353Z AUTO 11007KT 10SM CLR 24/18 A2981 RMK AO2 PRESRR SLP086 T02390178
KEMP 241253Z AUTO 06004KT 10SM CLR 22/19 A2977 RMK AO2 SLP072 T02220189
KEMP 241153Z AUTO 17013G28KT 10SM SCT036 22/19 A2980 RMK AO2 PK WND 17030/1139 SLP078 T02220189 10228 20206 50004
KEMP 241053Z AUTO 17008KT 10SM FEW110 21/18 A2981 RMK AO2 SLP082 T02110178
KEMP 240953Z AUTO 19004KT 10SM SCT120 21/18 A2980 RMK AO2 SLP080 T02060178
KEMP 240853Z AUTO 17006KT 10SM FEW120 21/18 A2978 RMK AO2 SLP074 T02110183 58006
KEMP 240753Z AUTO 17006KT 10SM BKN110 22/18 A2982 RMK AO2 SLP086 T02170178
KEMP 240653Z AUTO 17007KT 10SM BKN100 21/18 A2982 RMK AO2 SLP086 T02060183
KEMP 240553Z AUTO 17007KT 10SM CLR 21/18 A2980 RMK AO2 SLP082 T02110183 10300 20206 403170150 50000
KEMP 240453Z AUTO 17006KT 10SM CLR 21/18 A2981 RMK AO2 SLP085 T02060178
KEMP 240353Z AUTO 17006KT 10SM CLR 22/18 A2981 RMK AO2 SLP086 T02170178
KEMP 240253Z AUTO 18007KT 10SM CLR 24/18 A2980 RMK AO2 SLP083 T02390178 53012
KEMP 240153Z AUTO 18006KT 10SM CLR 25/18 A2979 RMK AO2 SLP079 T02500183
KEMP 240053Z AUTO 18008KT 10SM CLR 28/18 A2977 RMK AO2 SLP073 T02780178
KEMP 232353Z AUTO 19009KT 10SM FEW002 30/17 A2977 RMK AO2 SLP071 T03000167 10317 20278 58009
KEMP 232333Z AUTO 19009KT 170V240 10SM FEW002 31/16 A2977 RMK AO2 T03060161
KEMP 232253Z AUTO 21007KT 10SM CLR 31/17 A2978 RMK AO2 SLP074 T03110167
KEMP 232153Z AUTO 19009G16KT 10SM FEW055 31/17 A2979 RMK AO2 SLP077 T03110172